createdAt,value
2023-02-25T00:02:15.817Z,2.73
2023-02-25T00:04:44.686Z,3.13
2023-02-25T00:07:13.150Z,3.13
2023-02-25T00:09:42.723Z,3.53
2023-02-25T00:12:11.635Z,2.50
2023-02-25T00:14:40.701Z,2.80
2023-02-25T00:17:09.018Z,3.10
2023-02-25T00:19:37.536Z,2.70
2023-02-25T00:22:05.996Z,3.73
2023-02-25T00:24:34.614Z,3.63
2023-02-25T00:27:04.741Z,2.97
2023-02-25T00:29:33.251Z,2.70
2023-02-25T00:32:01.848Z,2.00
2023-02-25T00:34:30.427Z,1.60
2023-02-25T00:36:58.904Z,1.57
2023-02-25T00:39:42.341Z,1.03
2023-02-25T00:42:12.781Z,1.70
2023-02-25T00:44:41.553Z,1.40
2023-02-25T00:47:10.044Z,1.63
2023-02-25T00:49:38.685Z,1.50
2023-02-25T00:52:07.961Z,1.70
2023-02-25T00:54:37.088Z,1.67
2023-02-25T00:57:05.566Z,1.60
2023-02-25T00:59:35.624Z,2.30
2023-02-25T01:02:04.107Z,2.43
2023-02-25T01:04:32.634Z,1.80
2023-02-25T01:07:03.625Z,2.50
2023-02-25T01:09:32.356Z,2.80
2023-02-25T01:12:00.986Z,2.80
2023-02-25T01:14:29.656Z,3.27
2023-02-25T01:17:02.067Z,2.30
2023-02-25T01:19:31.039Z,3.30
2023-02-25T01:22:00.686Z,2.83
2023-02-25T01:24:31.286Z,2.67
2023-02-25T01:27:01.028Z,2.83
2023-02-25T01:29:31.318Z,3.57
2023-02-25T01:32:02.726Z,4.43
2023-02-25T01:34:32.141Z,3.20
2023-02-25T01:37:00.686Z,4.80
2023-02-25T01:39:29.729Z,3.63
2023-02-25T01:41:58.783Z,3.90
2023-02-25T01:44:31.472Z,3.07
2023-02-25T01:47:02.679Z,3.40
2023-02-25T01:49:33.798Z,3.87
2023-02-25T01:52:07.951Z,4.63
2023-02-25T01:54:37.747Z,3.80
2023-02-25T01:57:09.488Z,3.67
2023-02-25T01:59:39.087Z,3.43
2023-02-25T02:02:09.933Z,4.93
2023-02-25T02:04:39.596Z,3.47
2023-02-25T02:07:08.131Z,3.90
2023-02-25T02:09:36.641Z,3.33
2023-02-25T02:12:07.061Z,4.67
2023-02-25T02:14:39.851Z,4.27
2023-02-25T02:17:19.328Z,4.10
2023-02-25T02:20:10.163Z,3.63
2023-02-25T02:22:47.966Z,3.40
2023-02-25T02:25:53.665Z,3.47
2023-02-25T02:28:59.078Z,3.40
2023-02-25T02:31:50.344Z,3.73
2023-02-25T02:34:32.452Z,3.60
2023-02-25T02:37:08.871Z,2.33
2023-02-25T02:39:48.775Z,2.73
2023-02-25T02:42:27.578Z,1.77
2023-02-25T02:45:04.412Z,2.57
2023-02-25T02:47:38.081Z,2.67
2023-02-25T02:50:08.784Z,1.70
2023-02-25T02:52:42.955Z,1.80
2023-02-25T02:55:22.553Z,2.10
2023-02-25T02:57:55.021Z,2.50
2023-02-25T03:00:28.334Z,1.80
2023-02-25T03:03:01.251Z,2.03
2023-02-25T03:05:32.805Z,1.90
2023-02-25T03:08:06.314Z,3.10
2023-02-25T03:10:35.136Z,2.37
2023-02-25T03:13:03.763Z,2.20
2023-02-25T03:15:33.458Z,2.30
2023-02-25T03:18:07.213Z,2.47
2023-02-25T03:20:41.642Z,2.37
2023-02-25T03:23:14.366Z,3.17
2023-02-25T03:25:47.813Z,2.80
2023-02-25T03:28:26.377Z,2.73
2023-02-25T03:31:01.169Z,2.43
2023-02-25T03:33:35.911Z,2.70
2023-02-25T03:36:13.018Z,3.07
2023-02-25T03:38:47.013Z,3.30
2023-02-25T03:41:19.161Z,3.43
2023-02-25T03:43:51.173Z,2.77
2023-02-25T03:46:21.477Z,3.03
2023-02-25T03:48:54.548Z,3.03
2023-02-25T03:51:28.315Z,2.67
2023-02-25T03:53:57.079Z,2.30
2023-02-25T03:56:25.867Z,2.87
2023-02-25T03:58:54.410Z,2.67
2023-02-25T04:01:27.551Z,2.77
2023-02-25T04:03:57.589Z,3.33
2023-02-25T04:06:26.429Z,2.67
2023-02-25T04:08:55.006Z,2.63
2023-02-25T04:11:23.474Z,2.83
2023-02-25T04:13:52.333Z,3.30
2023-02-25T04:16:21.158Z,3.00
2023-02-25T04:18:49.764Z,3.73
2023-02-25T04:21:29.759Z,3.27
2023-02-25T04:23:58.692Z,3.20
2023-02-25T04:26:27.371Z,3.10
2023-02-25T04:28:55.707Z,2.73
2023-02-25T04:31:24.316Z,3.07
2023-02-25T04:33:52.851Z,1.97
2023-02-25T04:36:28.121Z,1.90
2023-02-25T04:38:57.671Z,1.70
2023-02-25T04:41:29.485Z,2.50
2023-02-25T04:43:58.477Z,2.27
2023-02-25T04:46:27.756Z,2.30
2023-02-25T04:48:56.217Z,2.60
2023-02-25T04:51:24.676Z,2.10
2023-02-25T04:53:54.880Z,3.50
2023-02-25T04:56:24.405Z,3.80
2023-02-25T04:58:54.019Z,3.43
2023-02-25T05:01:22.467Z,2.80
2023-02-25T05:03:56.721Z,2.60
2023-02-25T05:06:25.708Z,2.50
2023-02-25T05:08:57.423Z,3.00
2023-02-25T05:11:26.544Z,2.70
2023-02-25T05:13:56.024Z,2.60
2023-02-25T05:16:25.040Z,2.77
2023-02-25T05:18:54.306Z,3.53
2023-02-25T05:21:25.175Z,3.73
2023-02-25T05:23:56.069Z,3.67
2023-02-25T05:26:26.316Z,2.33
2023-02-25T05:28:56.120Z,3.47
2023-02-25T05:31:26.170Z,3.77
2023-02-25T05:33:55.241Z,3.27
2023-02-25T05:36:27.445Z,2.90
2023-02-25T05:39:02.728Z,2.87
2023-02-25T05:41:31.588Z,2.57
2023-02-25T05:43:59.880Z,3.80
2023-02-25T05:46:28.475Z,3.30
2023-02-25T05:48:57.052Z,3.77
2023-02-25T05:51:25.594Z,3.00
2023-02-25T05:53:54.182Z,3.43
2023-02-25T05:56:30.838Z,3.87
2023-02-25T05:59:00.567Z,3.90
2023-02-25T06:01:30.550Z,3.50
2023-02-25T06:03:59.900Z,3.40
2023-02-25T06:06:30.589Z,3.93
2023-02-25T06:08:59.608Z,3.00
2023-02-25T06:11:31.014Z,4.17
2023-02-25T06:14:01.364Z,4.30
2023-02-25T06:16:32.648Z,4.40
2023-02-25T06:19:02.575Z,3.57
2023-02-25T06:21:31.561Z,3.03
2023-02-25T06:24:00.094Z,3.90
2023-02-25T06:26:30.422Z,3.50
2023-02-25T06:28:59.128Z,3.63
2023-02-25T06:31:27.816Z,3.70
2023-02-25T06:33:56.609Z,3.07
2023-02-25T06:36:25.515Z,3.43
2023-02-25T06:38:54.100Z,3.20
2023-02-25T06:41:23.572Z,3.57
2023-02-25T06:43:53.950Z,4.00
2023-02-25T06:46:24.108Z,3.93
2023-02-25T06:48:52.883Z,3.80
2023-02-25T06:51:21.300Z,4.30
2023-02-25T06:53:51.164Z,3.57
2023-02-25T06:56:20.277Z,3.80
2023-02-25T06:58:49.050Z,4.17
2023-02-25T07:01:19.143Z,3.60
2023-02-25T07:03:47.823Z,3.80
2023-02-25T07:06:16.223Z,4.33
2023-02-25T07:08:44.929Z,3.13
2023-02-25T07:11:29.121Z,3.40
2023-02-25T07:13:58.150Z,3.63
2023-02-25T07:16:30.043Z,3.87
2023-02-25T07:19:02.227Z,3.47
2023-02-25T07:21:31.106Z,4.37
2023-02-25T07:23:59.831Z,3.37
2023-02-25T07:26:29.341Z,3.83
2023-02-25T07:28:58.762Z,4.10
2023-02-25T07:31:29.773Z,3.80
2023-02-25T07:34:03.396Z,2.87
2023-02-25T07:36:33.172Z,3.30
2023-02-25T07:39:02.180Z,2.90
2023-02-25T07:41:30.929Z,3.77
2023-02-25T07:43:59.584Z,2.63
2023-02-25T07:46:29.636Z,2.47
2023-02-25T07:48:58.048Z,2.40
2023-02-25T07:51:27.071Z,2.13
2023-02-25T07:53:57.501Z,2.33
2023-02-25T07:56:27.769Z,2.20
2023-02-25T07:58:56.400Z,2.60
2023-02-25T08:01:27.134Z,2.63
2023-02-25T08:03:59.040Z,2.20
2023-02-25T08:06:28.335Z,2.40
2023-02-25T08:08:56.954Z,2.13
2023-02-25T08:11:27.481Z,2.80
2023-02-25T08:13:56.218Z,2.27
2023-02-25T08:16:24.864Z,3.23
2023-02-25T08:18:54.548Z,3.27
2023-02-25T08:21:24.868Z,3.30
2023-02-25T08:23:54.128Z,3.00
2023-02-25T08:26:23.566Z,3.73
2023-02-25T08:28:52.421Z,3.40
2023-02-25T08:31:22.134Z,3.10
2023-02-25T08:33:52.912Z,3.20
2023-02-25T08:36:24.960Z,3.50
2023-02-25T08:38:54.255Z,3.13
2023-02-25T08:41:24.133Z,3.03
2023-02-25T08:43:54.637Z,3.13
2023-02-25T08:46:23.728Z,2.77
2023-02-25T08:48:52.898Z,3.37
2023-02-25T08:51:24.287Z,3.87
2023-02-25T08:53:53.357Z,3.23
2023-02-25T08:56:21.821Z,3.87
2023-02-25T08:58:50.201Z,3.73
2023-02-25T09:01:19.210Z,3.80
2023-02-25T09:03:52.332Z,2.30
2023-02-25T09:06:21.995Z,3.13
2023-02-25T09:08:52.121Z,3.03
2023-02-25T09:11:21.266Z,2.67
2023-02-25T09:13:49.865Z,3.00
2023-02-25T09:16:20.146Z,3.10
2023-02-25T09:18:50.392Z,3.23
2023-02-25T09:21:19.810Z,2.50
2023-02-25T09:23:51.447Z,2.53
2023-02-25T09:26:22.683Z,2.97
2023-02-25T09:28:51.321Z,3.30
2023-02-25T09:31:20.088Z,3.07
2023-02-25T09:33:49.189Z,2.90
2023-02-25T09:36:21.405Z,2.67
2023-02-25T09:38:51.860Z,2.60
2023-02-25T09:41:29.772Z,3.70
2023-02-25T09:44:08.512Z,3.80
2023-02-25T09:46:41.644Z,3.00
2023-02-25T09:49:16.656Z,2.33
2023-02-25T09:51:48.061Z,3.97
2023-02-25T09:54:23.584Z,4.27
2023-02-25T09:56:55.697Z,3.53
2023-02-25T09:59:24.594Z,3.63
2023-02-25T10:01:58.009Z,3.30
2023-02-25T10:04:33.507Z,3.20
2023-02-25T10:07:09.062Z,3.87
2023-02-25T10:09:46.008Z,3.00
2023-02-25T10:12:25.572Z,4.17
2023-02-25T10:15:16.603Z,2.90
2023-02-25T10:17:55.523Z,3.13
2023-02-25T10:20:51.529Z,2.97
2023-02-25T10:23:31.066Z,3.30
2023-02-25T10:26:07.116Z,2.70
2023-02-25T10:28:40.459Z,3.27
2023-02-25T10:31:13.700Z,3.60
2023-02-25T10:33:45.861Z,2.70
2023-02-25T10:36:16.973Z,3.13
2023-02-25T10:38:47.287Z,2.90
2023-02-25T10:41:16.067Z,3.40
2023-02-25T10:43:47.278Z,2.63
2023-02-25T10:46:19.943Z,4.17
2023-02-25T10:48:56.566Z,4.60
2023-02-25T10:51:27.475Z,3.10
2023-02-25T10:54:08.468Z,4.07
2023-02-25T10:56:43.296Z,3.77
2023-02-25T10:59:29.410Z,3.80
2023-02-25T11:01:59.811Z,3.40
2023-02-25T11:04:33.034Z,4.00
2023-02-25T11:07:01.541Z,3.37
2023-02-25T11:09:35.380Z,2.97
2023-02-25T11:12:13.297Z,3.47
2023-02-25T11:14:43.867Z,2.83
2023-02-25T11:17:20.281Z,2.70
2023-02-25T11:19:50.832Z,3.00
2023-02-25T11:22:21.778Z,2.33
2023-02-25T11:25:00.850Z,2.80
2023-02-25T11:27:39.308Z,2.97
2023-02-25T11:30:20.709Z,3.40
2023-02-25T11:32:53.902Z,3.97
2023-02-25T11:35:31.368Z,3.30
2023-02-25T11:38:13.371Z,3.30
2023-02-25T11:40:44.228Z,3.57
2023-02-25T11:43:18.920Z,3.30
2023-02-25T11:45:56.356Z,3.40
2023-02-25T11:48:28.588Z,3.27
2023-02-25T11:51:09.652Z,4.20
2023-02-25T11:54:05.819Z,3.70
2023-02-25T11:56:37.149Z,3.43
2023-02-25T11:59:15.972Z,3.23
2023-02-25T12:02:04.407Z,4.47
2023-02-25T12:05:02.749Z,3.33
2023-02-25T12:08:05.180Z,4.33
2023-02-25T12:10:58.700Z,3.80
2023-02-25T12:13:50.563Z,3.30
2023-02-25T12:16:40.905Z,2.43
2023-02-25T12:19:36.695Z,4.27
2023-02-25T12:22:59.503Z,3.57
2023-02-25T12:25:43.175Z,3.83
2023-02-25T12:28:49.761Z,3.70
2023-02-25T12:31:51.311Z,3.33
2023-02-25T12:34:38.113Z,2.70
2023-02-25T12:37:21.180Z,3.23
2023-02-25T12:40:09.384Z,3.03
2023-02-25T12:42:50.866Z,3.87
2023-02-25T12:45:57.964Z,3.03
2023-02-25T12:48:48.396Z,3.00
2023-02-25T12:51:48.165Z,3.40
2023-02-25T12:54:43.483Z,3.80
2023-02-25T12:57:39.767Z,3.33
2023-02-25T13:00:44.211Z,3.07
2023-02-25T13:03:27.083Z,2.17
2023-02-25T13:06:21.696Z,1.90
2023-02-25T13:09:09.946Z,2.40
2023-02-25T13:12:10.614Z,2.63
2023-02-25T13:14:55.257Z,2.47
2023-02-25T13:17:35.968Z,3.30
2023-02-25T13:20:37.747Z,2.73
2023-02-25T13:23:23.973Z,2.53
2023-02-25T13:26:10.394Z,2.57
2023-02-25T13:29:09.369Z,4.00
2023-02-25T13:31:45.533Z,2.77
2023-02-25T13:34:32.316Z,2.17
2023-02-25T13:37:23.520Z,2.50
2023-02-25T13:40:05.430Z,4.20
2023-02-25T13:42:56.110Z,2.33
2023-02-25T13:45:55.615Z,2.20
2023-02-25T13:48:53.914Z,3.13
2023-02-25T13:51:57.523Z,3.43
2023-02-25T13:54:43.343Z,3.67
2023-02-25T13:57:31.152Z,3.20
2023-02-25T14:00:37.027Z,4.00
2023-02-25T14:03:34.623Z,3.10
2023-02-25T14:06:16.303Z,2.30
2023-02-25T14:09:02.031Z,2.03
2023-02-25T14:11:43.580Z,2.67
2023-02-25T14:14:39.155Z,2.50
2023-02-25T14:17:28.859Z,3.53
2023-02-25T14:20:11.806Z,3.03
2023-02-25T14:22:45.363Z,2.87
2023-02-25T14:25:23.783Z,1.67
2023-02-25T14:28:05.873Z,2.03
2023-02-25T14:30:45.207Z,2.37
2023-02-25T14:33:35.350Z,1.90
2023-02-25T14:36:16.670Z,1.50
2023-02-25T14:39:01.878Z,2.37
2023-02-25T14:41:44.265Z,2.43
2023-02-25T14:44:19.770Z,1.53
2023-02-25T14:46:54.698Z,1.40
2023-02-25T14:49:29.958Z,2.17
2023-02-25T14:52:28.504Z,1.40
2023-02-25T14:55:26.202Z,1.77
2023-02-25T14:58:30.929Z,2.20
2023-02-25T15:01:32.462Z,1.90
2023-02-25T15:04:38.005Z,1.67
2023-02-25T15:07:21.593Z,2.00
2023-02-25T15:10:29.945Z,2.43
2023-02-25T15:13:33.655Z,1.57
2023-02-25T15:16:38.171Z,1.60
2023-02-25T15:19:25.799Z,2.17
2023-02-25T15:22:18.546Z,2.30
2023-02-25T15:24:47.856Z,1.60
2023-02-25T15:27:48.161Z,2.20
2023-02-25T15:30:19.493Z,2.40
2023-02-25T15:33:16.095Z,2.20
2023-02-25T15:35:57.200Z,2.10
2023-02-25T15:41:45.279Z,1.80
2023-02-25T15:44:35.255Z,2.20
2023-02-25T15:47:30.567Z,2.20
2023-02-25T15:49:59.571Z,2.07
2023-02-25T15:52:53.867Z,2.80
2023-02-25T15:55:33.683Z,2.47
2023-02-25T15:58:04.104Z,1.93
2023-02-25T16:01:02.560Z,2.23
2023-02-25T16:03:44.283Z,2.63
2023-02-25T16:06:16.755Z,2.17
2023-02-25T16:08:51.859Z,3.23
2023-02-25T16:11:37.744Z,3.40
2023-02-25T16:14:25.233Z,2.47
2023-02-25T16:16:57.720Z,1.73
2023-02-25T16:19:30.774Z,3.00
2023-02-25T16:22:01.682Z,2.70
2023-02-25T16:24:30.838Z,2.40
2023-02-25T16:27:01.534Z,3.53
2023-02-25T16:29:53.302Z,3.73
2023-02-25T16:32:32.976Z,3.43
2023-02-25T16:35:08.157Z,2.80
2023-02-25T16:37:43.812Z,2.97
2023-02-25T16:40:17.502Z,3.10
2023-02-25T16:42:47.583Z,3.40
2023-02-25T16:45:28.081Z,3.53
2023-02-25T16:47:59.456Z,2.50
2023-02-25T16:50:29.567Z,2.83
2023-02-25T16:52:58.480Z,3.00
2023-02-25T16:55:31.745Z,2.53
2023-02-25T16:58:05.334Z,2.70
2023-02-25T17:00:36.549Z,1.77
2023-02-25T17:03:11.816Z,2.23
2023-02-25T17:05:40.824Z,2.30
2023-02-25T17:08:18.046Z,3.53
2023-02-25T17:10:49.618Z,3.10
2023-02-25T17:13:27.562Z,3.07
2023-02-25T17:15:58.995Z,3.73
2023-02-25T17:18:32.145Z,2.97
2023-02-25T17:21:06.039Z,3.43
2023-02-25T17:23:40.470Z,2.83
2023-02-25T17:26:09.737Z,1.87
2023-02-25T17:28:38.379Z,2.40
2023-02-25T17:31:10.998Z,2.73
2023-02-25T17:33:48.467Z,2.43
2023-02-25T17:36:19.090Z,2.70
2023-02-25T17:38:48.179Z,2.77
2023-02-25T17:41:17.580Z,2.43
2023-02-25T17:43:46.573Z,3.63
2023-02-25T17:46:28.486Z,3.33
2023-02-25T17:48:58.962Z,2.50
2023-02-25T17:51:33.666Z,2.40
2023-02-25T17:54:07.217Z,2.60
2023-02-25T17:56:36.930Z,1.70
2023-02-25T17:59:07.348Z,4.33
2023-02-25T18:01:49.109Z,3.13
2023-02-25T18:04:26.384Z,2.93
2023-02-25T18:06:56.269Z,2.70
2023-02-25T18:09:31.296Z,3.33
2023-02-25T18:12:01.337Z,3.60
2023-02-25T18:14:35.832Z,3.40
2023-02-25T18:17:14.386Z,2.93
2023-02-25T18:19:46.119Z,2.73
2023-02-25T18:22:29.028Z,2.80
2023-02-25T18:24:59.464Z,2.90
2023-02-25T18:27:30.577Z,3.57
2023-02-25T18:30:03.032Z,3.00
2023-02-25T18:32:32.643Z,2.50
2023-02-25T18:35:01.064Z,2.63
2023-02-25T18:37:34.397Z,2.33
2023-02-25T18:40:04.117Z,2.30
2023-02-25T18:42:32.465Z,2.63
2023-02-25T18:45:01.426Z,2.50
2023-02-25T18:47:30.019Z,2.30
2023-02-25T18:49:59.746Z,2.30
2023-02-25T18:52:28.086Z,2.30
2023-02-25T18:54:56.982Z,2.23
2023-02-25T18:57:27.137Z,1.63
2023-02-25T18:59:55.641Z,2.47
2023-02-25T19:02:30.967Z,1.90
2023-02-25T19:05:01.329Z,1.60
2023-02-25T19:07:34.235Z,1.80
2023-02-25T19:10:03.022Z,2.90
2023-02-25T19:12:33.107Z,2.93
2023-02-25T19:15:04.192Z,2.93
2023-02-25T19:17:32.969Z,2.63
2023-02-25T19:20:03.004Z,3.57
2023-02-25T19:22:31.685Z,3.03
2023-02-25T19:25:00.462Z,3.00
2023-02-25T19:27:30.320Z,3.17
2023-02-25T19:30:00.660Z,2.60
2023-02-25T19:32:29.197Z,2.53
2023-02-25T19:34:58.044Z,2.33
2023-02-25T19:37:32.423Z,2.10
2023-02-25T19:40:00.974Z,2.40
2023-02-25T19:42:29.391Z,2.90
2023-02-25T19:44:58.197Z,2.93
2023-02-25T19:47:26.815Z,3.37
2023-02-25T19:49:55.230Z,2.30
2023-02-25T19:52:24.123Z,3.27
2023-02-25T19:54:53.926Z,3.10
2023-02-25T19:57:22.470Z,2.70
2023-02-25T19:59:50.918Z,3.67
2023-02-25T20:02:19.328Z,3.10
2023-02-25T20:04:47.991Z,2.53
2023-02-25T20:07:17.110Z,2.60
2023-02-25T20:09:45.518Z,2.70
2023-02-25T20:12:15.548Z,2.43
2023-02-25T20:14:44.305Z,3.33
2023-02-25T20:17:13.219Z,3.80
2023-02-25T20:19:41.801Z,3.20
2023-02-25T20:22:10.230Z,2.57
2023-02-25T20:24:38.513Z,3.00
2023-02-25T20:27:07.011Z,2.77
2023-02-25T20:29:36.839Z,3.00
2023-02-25T20:32:05.531Z,3.03
2023-02-25T20:34:34.256Z,3.13
2023-02-25T20:37:08.181Z,3.03
2023-02-25T20:39:50.473Z,2.73
2023-02-25T20:42:21.362Z,3.00
2023-02-25T20:44:52.580Z,2.47
2023-02-25T20:47:23.324Z,3.23
2023-02-25T20:49:52.033Z,3.23
2023-02-25T20:52:21.027Z,3.43
2023-02-25T20:54:50.714Z,3.03
2023-02-25T20:57:21.644Z,3.47
2023-02-25T20:59:52.690Z,3.07
2023-02-25T21:02:21.978Z,3.17
2023-02-25T21:04:51.531Z,3.30
2023-02-25T21:07:20.047Z,3.23
2023-02-25T21:09:48.432Z,3.30
2023-02-25T21:12:16.997Z,3.20
2023-02-25T21:14:45.688Z,3.63
2023-02-25T21:17:15.578Z,2.97
2023-02-25T21:19:44.043Z,2.93
2023-02-25T21:22:12.575Z,3.20
2023-02-25T21:24:41.300Z,3.43
2023-02-25T21:27:09.712Z,3.43
2023-02-25T21:29:38.598Z,2.60
2023-02-25T21:32:07.145Z,2.97
2023-02-25T21:34:37.364Z,3.47
2023-02-25T21:37:05.752Z,3.20
2023-02-25T21:39:34.483Z,3.00
2023-02-25T21:42:02.917Z,3.50
2023-02-25T21:44:31.603Z,3.80
2023-02-25T21:47:00.295Z,4.17
2023-02-25T21:49:30.852Z,4.00
2023-02-25T21:52:01.640Z,3.87
2023-02-25T21:54:30.055Z,2.77
2023-02-25T21:56:58.499Z,2.53
2023-02-25T21:59:27.781Z,3.07
2023-02-25T22:01:56.422Z,2.40
2023-02-25T22:04:25.399Z,2.77
2023-02-25T22:06:53.904Z,2.10
2023-02-25T22:09:23.588Z,2.37
2023-02-25T22:11:52.197Z,3.10
2023-02-25T22:14:20.968Z,2.20
2023-02-25T22:16:50.330Z,2.07
2023-02-25T22:19:18.732Z,2.70
2023-02-25T22:21:47.221Z,2.50
2023-02-25T22:24:15.800Z,2.53
2023-02-25T22:26:47.870Z,2.87
2023-02-25T22:29:17.148Z,2.47
2023-02-25T22:31:45.565Z,2.57
2023-02-25T22:34:14.353Z,2.67
2023-02-25T22:36:42.869Z,3.03
2023-02-25T22:39:11.568Z,2.77
2023-02-25T22:41:40.059Z,2.77
2023-02-25T22:44:10.186Z,2.77
2023-02-25T22:46:39.601Z,2.80
2023-02-25T22:49:09.462Z,2.93
2023-02-25T22:51:40.510Z,2.40
2023-02-25T22:54:09.438Z,2.97
2023-02-25T22:56:37.941Z,2.80
2023-02-25T22:59:07.093Z,2.80
2023-02-25T23:01:37.288Z,2.77
2023-02-25T23:04:07.885Z,4.10
2023-02-25T23:06:43.985Z,2.90
2023-02-25T23:09:13.541Z,3.23
2023-02-25T23:11:44.165Z,2.73
2023-02-25T23:14:13.144Z,3.30
2023-02-25T23:16:44.765Z,2.77
2023-02-25T23:19:19.758Z,3.30
2023-02-25T23:21:48.359Z,2.77
2023-02-25T23:24:19.534Z,3.13
2023-02-25T23:26:50.640Z,2.50
2023-02-25T23:29:19.560Z,2.23
2023-02-25T23:31:50.410Z,2.70
2023-02-25T23:34:25.133Z,2.77
2023-02-25T23:36:56.885Z,2.73
2023-02-25T23:39:25.418Z,2.60
2023-02-25T23:41:54.034Z,2.50
2023-02-25T23:44:22.519Z,2.40
2023-02-25T23:46:52.269Z,2.70
2023-02-25T23:49:20.681Z,2.60
2023-02-25T23:51:49.867Z,2.93
2023-02-25T23:54:19.678Z,2.17
2023-02-25T23:56:48.114Z,2.90
2023-02-25T23:59:16.821Z,2.60
